createdAt,value
2023-02-07T00:00:24.849Z,3.90
2023-02-07T00:02:51.654Z,3.90
2023-02-07T00:05:18.454Z,3.90
2023-02-07T00:07:45.134Z,3.80
2023-02-07T00:10:11.744Z,3.80
2023-02-07T00:12:38.628Z,3.80
2023-02-07T00:15:06.195Z,3.70
2023-02-07T00:17:33.128Z,3.70
2023-02-07T00:19:59.830Z,3.70
2023-02-07T00:22:26.833Z,3.60
2023-02-07T00:24:53.530Z,3.60
2023-02-07T00:27:20.381Z,3.60
2023-02-07T00:29:47.055Z,3.60
2023-02-07T00:32:13.799Z,3.60
2023-02-07T00:34:41.962Z,3.50
2023-02-07T00:37:09.771Z,3.50
2023-02-07T00:39:38.273Z,3.50
2023-02-07T00:42:05.435Z,3.50
2023-02-07T00:44:32.968Z,3.50
2023-02-07T00:47:00.205Z,3.40
2023-02-07T00:49:27.130Z,3.40
2023-02-07T00:51:53.774Z,3.40
2023-02-07T00:54:20.524Z,3.40
2023-02-07T00:56:47.217Z,3.40
2023-02-07T00:59:14.106Z,3.40
2023-02-07T01:01:40.879Z,3.40
2023-02-07T01:04:07.530Z,3.40
2023-02-07T01:06:36.840Z,3.30
2023-02-07T01:09:05.489Z,3.30
2023-02-07T01:11:32.479Z,3.30
2023-02-07T01:14:02.329Z,3.30
2023-02-07T01:16:35.819Z,3.20
2023-02-07T01:19:08.324Z,3.20
2023-02-07T01:21:35.129Z,3.20
2023-02-07T01:24:03.637Z,3.10
2023-02-07T01:26:30.394Z,3.10
2023-02-07T01:28:57.138Z,3.00
2023-02-07T01:31:25.073Z,3.10
2023-02-07T01:33:56.853Z,3.00
2023-02-07T01:36:26.027Z,3.00
2023-02-07T01:38:53.989Z,3.00
2023-02-07T01:41:22.530Z,3.00
2023-02-07T01:43:58.223Z,3.00
2023-02-07T01:46:25.669Z,2.90
2023-02-07T01:48:53.054Z,2.90
2023-02-07T01:51:20.198Z,2.90
2023-02-07T01:53:47.611Z,2.90
2023-02-07T01:56:29.642Z,2.80
2023-02-07T01:59:01.003Z,2.80
2023-02-07T02:01:27.752Z,2.80
2023-02-07T02:03:56.204Z,2.80
2023-02-07T02:06:27.959Z,2.80
2023-02-07T02:09:01.158Z,2.80
2023-02-07T02:11:49.055Z,2.80
2023-02-07T02:14:38.646Z,2.70
2023-02-07T02:17:11.121Z,2.70
2023-02-07T02:19:49.520Z,2.70
2023-02-07T02:22:53.813Z,2.70
2023-02-07T02:25:47.637Z,2.70
2023-02-07T02:28:49.549Z,2.70
2023-02-07T02:31:43.976Z,2.60
2023-02-07T02:34:20.128Z,2.60
2023-02-07T02:37:01.319Z,2.60
2023-02-07T02:39:50.429Z,2.50
2023-02-07T02:42:25.736Z,2.50
2023-02-07T02:44:58.398Z,2.50
2023-02-07T02:47:29.200Z,2.40
2023-02-07T02:49:56.926Z,2.40
2023-02-07T02:52:23.897Z,2.70
2023-02-07T02:54:50.562Z,2.40
2023-02-07T02:57:53.160Z,2.40
2023-02-07T03:00:44.229Z,2.30
2023-02-07T03:03:38.703Z,2.30
2023-02-07T03:06:32.745Z,2.30
2023-02-07T03:09:37.083Z,2.30
2023-02-07T03:12:06.815Z,2.30
2023-02-07T03:14:55.634Z,2.30
2023-02-07T03:17:32.389Z,2.20
2023-02-07T03:20:26.162Z,2.20
2023-02-07T03:22:55.892Z,2.20
2023-02-07T03:25:24.383Z,2.20
2023-02-07T03:27:54.846Z,2.20
2023-02-07T03:30:26.238Z,2.20
2023-02-07T03:32:58.300Z,2.10
2023-02-07T03:36:03.055Z,2.10
2023-02-07T03:38:30.160Z,2.10
2023-02-07T03:41:01.610Z,2.10
2023-02-07T03:43:31.830Z,2.10
2023-02-07T03:45:58.815Z,2.10
2023-02-07T03:48:25.813Z,2.10
2023-02-07T03:50:52.944Z,2.10
2023-02-07T03:53:21.106Z,2.00
2023-02-07T03:55:47.994Z,2.00
2023-02-07T03:58:14.728Z,2.10
2023-02-07T04:00:41.483Z,2.00
2023-02-07T04:03:08.207Z,2.00
2023-02-07T04:05:34.967Z,2.00
2023-02-07T04:08:01.625Z,2.10
2023-02-07T04:10:28.227Z,2.00
2023-02-07T04:12:54.913Z,2.00
2023-02-07T04:15:21.835Z,2.10
2023-02-07T04:17:48.576Z,2.10
2023-02-07T04:20:15.318Z,2.10
2023-02-07T04:22:41.971Z,2.10
2023-02-07T04:25:08.629Z,2.10
2023-02-07T04:27:35.241Z,2.10
2023-02-07T04:30:01.881Z,2.10
2023-02-07T04:32:28.534Z,2.10
2023-02-07T04:34:55.213Z,2.10
2023-02-07T04:37:21.872Z,2.10
2023-02-07T04:39:48.651Z,2.20
2023-02-07T04:42:15.298Z,2.20
2023-02-07T04:44:41.962Z,2.20
2023-02-07T04:47:08.610Z,2.20
2023-02-07T04:49:35.326Z,2.20
2023-02-07T04:52:02.224Z,2.20
2023-02-07T04:54:28.934Z,2.20
2023-02-07T04:56:55.736Z,2.20
2023-02-07T04:59:22.556Z,2.30
2023-02-07T05:01:49.215Z,2.30
2023-02-07T05:04:15.931Z,2.20
2023-02-07T05:06:42.578Z,2.20
2023-02-07T05:09:09.224Z,2.20
2023-02-07T05:11:35.917Z,2.20
2023-02-07T05:14:02.713Z,2.20
2023-02-07T05:16:29.350Z,2.20
2023-02-07T05:18:56.051Z,2.20
2023-02-07T05:21:22.744Z,2.20
2023-02-07T05:23:50.124Z,2.20
2023-02-07T05:26:17.294Z,2.20
2023-02-07T05:28:44.509Z,2.20
2023-02-07T05:31:11.279Z,2.20
2023-02-07T05:33:38.158Z,2.20
2023-02-07T05:36:05.449Z,2.20
2023-02-07T05:38:32.210Z,2.20
2023-02-07T05:40:58.906Z,2.20
2023-02-07T05:43:25.522Z,2.20
2023-02-07T05:45:52.260Z,2.20
2023-02-07T05:48:18.937Z,2.20
2023-02-07T05:50:45.615Z,2.20
2023-02-07T05:53:12.909Z,2.20
2023-02-07T05:55:41.012Z,2.20
2023-02-07T05:58:07.809Z,2.20
2023-02-07T06:00:34.594Z,2.20
2023-02-07T06:03:01.232Z,2.20
2023-02-07T06:05:31.601Z,2.20
2023-02-07T06:07:58.595Z,2.20
2023-02-07T06:10:25.643Z,2.20
2023-02-07T06:12:52.357Z,2.20
2023-02-07T06:15:19.041Z,2.20
2023-02-07T06:17:45.716Z,2.10
2023-02-07T06:20:12.721Z,2.10
2023-02-07T06:22:39.386Z,2.10
2023-02-07T06:25:10.575Z,2.10
2023-02-07T06:27:39.112Z,2.10
2023-02-07T06:30:06.541Z,2.10
2023-02-07T06:32:34.425Z,2.10
2023-02-07T06:35:01.086Z,2.10
2023-02-07T06:37:27.754Z,2.10
2023-02-07T06:39:54.449Z,2.10
2023-02-07T06:42:21.172Z,2.10
2023-02-07T06:44:47.824Z,2.00
2023-02-07T06:47:14.427Z,2.00
2023-02-07T06:49:41.118Z,2.00
2023-02-07T06:52:07.823Z,2.00
2023-02-07T06:54:34.483Z,2.00
2023-02-07T06:57:01.405Z,2.00
2023-02-07T06:59:28.088Z,1.90
2023-02-07T07:01:54.889Z,1.90
2023-02-07T07:04:21.493Z,1.90
2023-02-07T07:06:48.187Z,1.90
2023-02-07T07:09:14.818Z,1.90
2023-02-07T07:11:43.150Z,1.90
2023-02-07T07:14:11.028Z,1.90
2023-02-07T07:16:38.329Z,1.90
2023-02-07T07:19:05.143Z,1.90
2023-02-07T07:21:31.842Z,1.90
2023-02-07T07:23:58.784Z,1.90
2023-02-07T07:26:25.501Z,1.90
2023-02-07T07:28:57.881Z,1.90
2023-02-07T07:31:24.910Z,1.90
2023-02-07T07:33:53.666Z,1.90
2023-02-07T07:36:20.796Z,1.90
2023-02-07T07:38:47.967Z,1.90
2023-02-07T07:41:15.039Z,1.90
2023-02-07T07:43:41.673Z,2.00
2023-02-07T07:46:08.757Z,2.00
2023-02-07T07:48:35.954Z,2.00
2023-02-07T07:51:02.677Z,2.00
2023-02-07T07:53:29.339Z,2.00
2023-02-07T07:55:57.054Z,2.00
2023-02-07T07:58:25.533Z,2.00
2023-02-07T08:00:52.275Z,2.00
2023-02-07T08:03:20.140Z,2.00
2023-02-07T08:05:47.306Z,2.10
2023-02-07T08:08:14.807Z,2.10
2023-02-07T08:10:41.929Z,2.10
2023-02-07T08:13:09.120Z,2.10
2023-02-07T08:15:35.826Z,2.10
2023-02-07T08:18:02.525Z,2.20
2023-02-07T08:20:29.285Z,2.20
2023-02-07T08:22:57.551Z,2.20
2023-02-07T08:25:24.942Z,2.30
2023-02-07T08:27:51.865Z,2.30
2023-02-07T08:30:18.903Z,2.30
2023-02-07T08:32:45.581Z,2.40
2023-02-07T08:35:12.342Z,2.40
2023-02-07T08:37:39.240Z,2.40
2023-02-07T08:40:06.465Z,2.40
2023-02-07T08:42:33.274Z,2.40
2023-02-07T08:44:59.923Z,2.50
2023-02-07T08:47:26.699Z,2.50
2023-02-07T08:49:53.462Z,2.50
2023-02-07T08:52:20.332Z,2.60
2023-02-07T08:54:47.037Z,2.60
2023-02-07T08:57:14.831Z,2.60
2023-02-07T08:59:41.776Z,2.70
2023-02-07T09:02:10.189Z,2.70
2023-02-07T09:04:36.906Z,2.80
2023-02-07T09:07:03.606Z,2.80
2023-02-07T09:09:32.552Z,2.80
2023-02-07T09:11:59.260Z,2.90
2023-02-07T09:14:26.204Z,2.90
2023-02-07T09:16:52.911Z,2.90
2023-02-07T09:19:19.948Z,3.00
2023-02-07T09:21:46.698Z,3.00
2023-02-07T09:24:13.537Z,3.10
2023-02-07T09:26:40.264Z,3.10
2023-02-07T09:29:07.560Z,3.20
2023-02-07T09:31:34.860Z,3.20
2023-02-07T09:34:02.725Z,3.30
2023-02-07T09:36:30.896Z,3.40
2023-02-07T09:38:58.504Z,3.60
2023-02-07T09:41:46.924Z,3.90
2023-02-07T09:44:31.065Z,4.20
2023-02-07T09:47:05.882Z,4.50
2023-02-07T09:49:35.431Z,4.90
2023-02-07T09:52:04.884Z,5.30
2023-02-07T09:54:42.054Z,5.70
2023-02-07T09:57:16.524Z,6.10
2023-02-07T09:59:54.374Z,6.60
2023-02-07T10:02:42.146Z,7.00
2023-02-07T10:05:19.808Z,7.60
2023-02-07T10:07:47.981Z,8.10
2023-02-07T10:10:28.207Z,8.60
2023-02-07T10:13:39.720Z,9.10
2023-02-07T10:16:15.072Z,9.70
2023-02-07T10:18:46.699Z,10.30
2023-02-07T10:21:32.442Z,10.70
2023-02-07T10:24:26.420Z,11.20
2023-02-07T10:26:59.327Z,11.70
2023-02-07T10:29:32.873Z,12.10
2023-02-07T10:32:02.502Z,12.50
2023-02-07T10:34:39.251Z,12.80
2023-02-07T10:37:26.935Z,13.00
2023-02-07T10:40:41.500Z,13.10
2023-02-07T10:43:22.322Z,13.20
2023-02-07T10:45:54.367Z,13.20
2023-02-07T10:48:28.286Z,13.10
2023-02-07T10:50:57.321Z,13.10
2023-02-07T10:54:04.460Z,12.90
2023-02-07T10:56:33.678Z,12.80
2023-02-07T10:59:00.554Z,12.70
2023-02-07T11:01:30.390Z,12.50
2023-02-07T11:03:57.165Z,12.30
2023-02-07T11:06:29.719Z,12.10
2023-02-07T11:09:22.536Z,12.00
2023-02-07T11:11:54.236Z,11.80
2023-02-07T11:14:27.962Z,11.60
2023-02-07T11:16:56.852Z,11.40
2023-02-07T11:19:29.360Z,11.30
2023-02-07T11:22:22.494Z,11.10
2023-02-07T11:24:53.292Z,10.90
2023-02-07T11:27:22.093Z,10.70
2023-02-07T11:29:54.736Z,10.60
2023-02-07T11:32:23.599Z,10.40
2023-02-07T11:35:01.390Z,10.30
2023-02-07T11:37:35.179Z,10.20
2023-02-07T11:40:38.516Z,10.10
2023-02-07T11:43:15.670Z,10.00
2023-02-07T11:45:49.925Z,9.90
2023-02-07T11:48:26.576Z,9.80
2023-02-07T11:50:55.652Z,9.70
2023-02-07T11:53:34.946Z,9.60
2023-02-07T11:56:01.648Z,9.50
2023-02-07T11:58:41.357Z,9.40
2023-02-07T12:01:08.632Z,9.40
2023-02-07T12:03:58.550Z,9.40
2023-02-07T12:06:31.825Z,9.30
2023-02-07T12:09:00.003Z,9.30
2023-02-07T12:11:33.942Z,9.30
2023-02-07T12:14:16.721Z,9.20
2023-02-07T12:16:52.187Z,9.20
2023-02-07T12:19:30.822Z,9.20
2023-02-07T12:22:07.464Z,9.20
2023-02-07T12:24:45.096Z,9.20
2023-02-07T12:27:14.504Z,9.20
2023-02-07T12:29:56.921Z,9.20
2023-02-07T12:32:45.343Z,9.20
2023-02-07T12:35:36.530Z,9.20
2023-02-07T12:38:26.397Z,9.20
2023-02-07T12:41:02.696Z,9.20
2023-02-07T12:43:33.317Z,9.20
2023-02-07T12:46:03.170Z,9.20
2023-02-07T12:48:37.089Z,9.20
2023-02-07T12:51:12.026Z,9.20
2023-02-07T12:53:45.748Z,9.20
2023-02-07T12:56:41.729Z,9.20
2023-02-07T12:59:43.465Z,9.10
2023-02-07T13:02:38.564Z,9.10
2023-02-07T13:05:30.305Z,9.10
2023-02-07T13:08:00.024Z,9.10
2023-02-07T13:10:41.691Z,9.00
2023-02-07T13:13:29.929Z,9.00
2023-02-07T13:16:11.360Z,9.00
2023-02-07T13:19:02.296Z,9.00
2023-02-07T13:21:46.417Z,8.90
2023-02-07T13:24:16.899Z,8.90
2023-02-07T13:26:51.598Z,8.90
2023-02-07T13:29:18.813Z,8.80
2023-02-07T13:31:59.210Z,8.80
2023-02-07T13:34:28.903Z,8.80
2023-02-07T13:36:58.887Z,8.80
2023-02-07T13:39:48.568Z,8.70
2023-02-07T13:42:53.597Z,8.70
2023-02-07T13:45:57.360Z,8.70
2023-02-07T13:48:44.098Z,8.60
2023-02-07T13:51:58.775Z,8.60
2023-02-07T13:55:11.080Z,8.50
2023-02-07T13:58:02.450Z,8.50
2023-02-07T14:00:32.506Z,8.40
2023-02-07T14:03:06.515Z,8.40
2023-02-07T14:05:43.778Z,8.30
2023-02-07T14:08:16.480Z,8.30
2023-02-07T14:10:56.614Z,8.20
2023-02-07T14:13:26.218Z,8.20
2023-02-07T14:16:10.259Z,8.20
2023-02-07T14:18:54.325Z,8.20
2023-02-07T14:21:21.330Z,8.20
2023-02-07T14:23:50.724Z,8.10
2023-02-07T14:26:39.069Z,8.10
2023-02-07T14:29:23.593Z,8.10
2023-02-07T14:32:16.344Z,8.10
2023-02-07T14:35:03.007Z,8.00
2023-02-07T14:37:46.353Z,8.00
2023-02-07T14:40:36.093Z,8.00
2023-02-07T14:43:12.463Z,7.90
2023-02-07T14:45:59.268Z,7.90
2023-02-07T14:48:32.663Z,7.90
2023-02-07T14:50:59.414Z,7.90
2023-02-07T14:53:26.273Z,7.80
2023-02-07T14:55:59.554Z,7.80
2023-02-07T14:58:37.944Z,7.80
2023-02-07T15:01:12.279Z,7.80
2023-02-07T15:03:39.357Z,7.80
2023-02-07T15:06:31.627Z,7.80
2023-02-07T15:09:02.276Z,7.80
2023-02-07T15:11:30.685Z,7.80
2023-02-07T15:14:04.969Z,7.70
2023-02-07T15:16:40.105Z,7.70
2023-02-07T15:19:16.159Z,7.70
2023-02-07T15:21:51.312Z,7.70
2023-02-07T15:24:34.929Z,7.70
2023-02-07T15:27:18.300Z,7.60
2023-02-07T15:29:55.970Z,7.60
2023-02-07T15:32:27.747Z,7.60
2023-02-07T15:34:56.206Z,7.60
2023-02-07T15:37:25.879Z,7.60
2023-02-07T15:39:54.397Z,7.60
2023-02-07T15:42:21.764Z,7.60
2023-02-07T15:44:51.589Z,7.50
2023-02-07T15:47:32.487Z,7.50
2023-02-07T15:50:14.170Z,7.50
2023-02-07T15:52:44.498Z,7.50
2023-02-07T15:55:43.105Z,7.40
2023-02-07T15:58:18.446Z,7.40
2023-02-07T16:00:45.171Z,7.40
2023-02-07T16:03:21.599Z,7.40
2023-02-07T16:05:49.133Z,7.30
2023-02-07T16:08:37.381Z,7.30
2023-02-07T16:11:25.791Z,7.30
2023-02-07T16:14:20.249Z,7.20
2023-02-07T16:16:55.045Z,7.20
2023-02-07T16:19:32.151Z,7.10
2023-02-07T16:22:08.375Z,7.10
2023-02-07T16:24:37.168Z,7.10
2023-02-07T16:27:05.394Z,7.10
2023-02-07T16:29:32.586Z,7.00
2023-02-07T16:31:59.343Z,7.00
2023-02-07T16:34:26.006Z,7.00
2023-02-07T16:36:56.244Z,6.90
2023-02-07T16:39:23.379Z,6.90
2023-02-07T16:42:00.954Z,6.80
2023-02-07T16:44:31.009Z,6.80
2023-02-07T16:46:57.922Z,6.80
2023-02-07T16:49:26.921Z,6.80
2023-02-07T16:51:53.965Z,6.70
2023-02-07T16:54:21.229Z,6.70
2023-02-07T16:56:54.293Z,6.70
2023-02-07T16:59:22.071Z,6.60
2023-02-07T17:01:50.805Z,6.60
2023-02-07T17:04:17.913Z,6.50
2023-02-07T17:06:45.132Z,6.50
2023-02-07T17:09:14.752Z,6.40
2023-02-07T17:11:41.533Z,6.40
2023-02-07T17:14:08.305Z,6.40
2023-02-07T17:16:35.055Z,6.30
2023-02-07T17:19:03.081Z,6.30
2023-02-07T17:21:29.743Z,6.30
2023-02-07T17:23:56.543Z,6.20
2023-02-07T17:26:31.140Z,6.20
2023-02-07T17:28:58.242Z,6.20
2023-02-07T17:31:25.798Z,6.10
2023-02-07T17:33:52.582Z,6.10
2023-02-07T17:36:20.131Z,6.10
2023-02-07T17:38:46.822Z,6.10
2023-02-07T17:41:15.475Z,6.00
2023-02-07T17:43:42.286Z,6.00
2023-02-07T17:46:15.457Z,6.00
2023-02-07T17:48:42.174Z,5.90
2023-02-07T17:51:08.885Z,5.90
2023-02-07T17:53:35.517Z,5.90
2023-02-07T17:56:02.141Z,5.90
2023-02-07T17:58:30.091Z,5.80
2023-02-07T18:00:56.764Z,5.80
2023-02-07T18:03:23.464Z,5.80
2023-02-07T18:05:50.309Z,5.80
2023-02-07T18:08:17.046Z,5.70
2023-02-07T18:10:43.696Z,5.70
2023-02-07T18:13:10.469Z,5.70
2023-02-07T18:15:37.223Z,5.60
2023-02-07T18:18:04.124Z,5.60
2023-02-07T18:20:32.592Z,5.60
2023-02-07T18:23:00.636Z,5.60
2023-02-07T18:25:29.497Z,5.60
2023-02-07T18:27:57.414Z,5.60
2023-02-07T18:30:26.396Z,5.60
2023-02-07T18:32:53.128Z,5.60
2023-02-07T18:35:21.127Z,5.50
2023-02-07T18:37:47.823Z,5.50
2023-02-07T18:40:15.667Z,5.50
2023-02-07T18:42:42.703Z,5.50
2023-02-07T18:45:10.136Z,5.50
2023-02-07T18:47:36.777Z,5.50
2023-02-07T18:50:03.646Z,5.50
2023-02-07T18:52:30.292Z,5.50
2023-02-07T18:54:56.954Z,5.40
2023-02-07T18:57:23.740Z,5.40
2023-02-07T18:59:50.550Z,5.40
2023-02-07T19:02:17.681Z,5.40
2023-02-07T19:04:44.386Z,5.40
2023-02-07T19:07:11.976Z,5.40
2023-02-07T19:09:38.665Z,5.40
2023-02-07T19:12:06.557Z,5.30
2023-02-07T19:14:35.401Z,5.40
2023-02-07T19:17:02.315Z,5.30
2023-02-07T19:19:30.827Z,5.30
2023-02-07T19:21:57.868Z,5.30
2023-02-07T19:24:25.463Z,5.30
2023-02-07T19:26:55.996Z,5.20
2023-02-07T19:29:28.667Z,5.20
2023-02-07T19:32:01.050Z,5.20
2023-02-07T19:34:28.958Z,5.20
2023-02-07T19:36:56.539Z,5.20
2023-02-07T19:39:23.291Z,5.20
2023-02-07T19:41:50.199Z,5.10
2023-02-07T19:44:19.657Z,5.10
2023-02-07T19:46:46.872Z,5.10
2023-02-07T19:49:14.943Z,5.10
2023-02-07T19:51:42.069Z,5.00
2023-02-07T19:54:09.059Z,5.00
2023-02-07T19:56:37.439Z,5.00
2023-02-07T19:59:06.292Z,5.00
2023-02-07T20:01:34.455Z,4.90
2023-02-07T20:04:01.241Z,4.90
2023-02-07T20:06:31.301Z,4.90
2023-02-07T20:08:59.798Z,4.90
2023-02-07T20:11:27.663Z,4.80
2023-02-07T20:13:56.000Z,4.80
2023-02-07T20:16:25.065Z,4.80
2023-02-07T20:18:54.301Z,4.80
2023-02-07T20:21:24.731Z,4.80
2023-02-07T20:23:53.642Z,4.70
2023-02-07T20:26:26.862Z,4.70
2023-02-07T20:28:54.144Z,4.70
2023-02-07T20:31:23.883Z,4.70
2023-02-07T20:33:50.701Z,4.70
2023-02-07T20:36:18.947Z,4.70
2023-02-07T20:38:46.312Z,4.60
2023-02-07T20:41:15.996Z,4.60
2023-02-07T20:43:43.127Z,4.60
2023-02-07T20:46:13.737Z,4.60
2023-02-07T20:48:41.155Z,4.60
2023-02-07T20:51:12.273Z,4.60
2023-02-07T20:53:43.776Z,4.50
2023-02-07T20:56:18.878Z,4.50
2023-02-07T20:58:49.166Z,4.50
2023-02-07T21:01:24.666Z,4.50
2023-02-07T21:03:53.522Z,4.50
2023-02-07T21:06:22.700Z,4.40
2023-02-07T21:08:50.777Z,4.40
2023-02-07T21:11:17.824Z,4.40
2023-02-07T21:13:45.866Z,4.40
2023-02-07T21:16:14.014Z,4.40
2023-02-07T21:18:41.429Z,4.40
2023-02-07T21:21:08.603Z,4.40
2023-02-07T21:23:35.755Z,4.40
2023-02-07T21:26:04.365Z,4.30
2023-02-07T21:28:31.000Z,4.30
2023-02-07T21:31:08.927Z,4.30
2023-02-07T21:33:35.981Z,4.30
2023-02-07T21:36:11.660Z,4.30
2023-02-07T21:38:39.496Z,4.30
2023-02-07T21:41:10.228Z,4.30
2023-02-07T21:43:40.214Z,4.30
2023-02-07T21:46:12.419Z,4.30
2023-02-07T21:48:40.033Z,4.20
2023-02-07T21:51:09.133Z,4.20
2023-02-07T21:53:36.560Z,4.20
2023-02-07T21:56:06.671Z,4.20
2023-02-07T21:58:33.977Z,4.20
2023-02-07T22:01:18.716Z,4.20
2023-02-07T22:03:47.617Z,4.10
2023-02-07T22:06:15.613Z,4.10
2023-02-07T22:08:47.818Z,4.10
2023-02-07T22:11:15.022Z,4.10
2023-02-07T22:13:42.917Z,4.00
2023-02-07T22:16:11.248Z,4.00
2023-02-07T22:18:38.088Z,4.00
2023-02-07T22:21:14.054Z,4.00
2023-02-07T22:23:41.045Z,4.00
2023-02-07T22:26:08.479Z,4.00
2023-02-07T22:28:36.650Z,4.00
2023-02-07T22:31:09.294Z,3.90
2023-02-07T22:33:36.169Z,3.90
2023-02-07T22:36:03.144Z,3.90
2023-02-07T22:38:29.908Z,3.90
2023-02-07T22:41:03.026Z,3.90
2023-02-07T22:43:30.059Z,3.90
2023-02-07T22:45:56.814Z,3.90
2023-02-07T22:48:25.019Z,3.90
2023-02-07T22:50:51.644Z,3.90
2023-02-07T22:53:18.360Z,3.90
2023-02-07T22:55:45.029Z,3.90
2023-02-07T22:58:14.972Z,3.90
2023-02-07T23:00:42.492Z,3.90
2023-02-07T23:03:11.317Z,3.90
2023-02-07T23:05:39.188Z,3.80
2023-02-07T23:08:06.338Z,3.80
2023-02-07T23:10:33.107Z,3.80
2023-02-07T23:13:00.509Z,3.80
2023-02-07T23:15:30.021Z,3.80
2023-02-07T23:17:56.782Z,3.70
2023-02-07T23:20:26.076Z,3.70
2023-02-07T23:22:52.738Z,3.70
2023-02-07T23:25:19.473Z,3.60
2023-02-07T23:27:49.290Z,3.60
2023-02-07T23:30:16.122Z,3.60
2023-02-07T23:32:42.839Z,3.50
2023-02-07T23:35:09.537Z,3.50
2023-02-07T23:37:38.248Z,3.50
2023-02-07T23:40:07.184Z,3.40
2023-02-07T23:42:33.844Z,3.40
2023-02-07T23:45:00.501Z,3.40
2023-02-07T23:47:29.553Z,3.40
2023-02-07T23:49:58.293Z,3.30
2023-02-07T23:52:25.000Z,3.30
2023-02-07T23:54:52.418Z,3.30
2023-02-07T23:57:23.750Z,3.30
2023-02-07T23:59:50.477Z,3.30
